Time;durP1;ratioP1;P1;durP2;ratioP2;P2;SDS_P1;SDS_P2;PMS_P1;PMS_P2;Temp;Humidity;BMP_temperature;BMP_pressure;BME280_temperature;BME280_humidity;BME280_pressure;Samples;Min_cycle;Max_cycle;Signal;HPM_P1;HPM_P2
2021/12/12 00:01:41;;;;;;;189.80;59.23;;;;;;;0.59;94.46;100843.67;1672078;85;25585;-77
2021/12/12 00:04:14;;;;;;;174.75;55.15;;;;;;;0.57;94.39;100850.55;1671923;85;27364;-77
2021/12/12 00:06:51;;;;;;;189.20;57.50;;;;;;;0.53;94.35;100856.05;1669856;84;25651;-76
2021/12/12 00:09:26;;;;;;;169.00;55.75;;;;;;;0.53;94.45;100854.72;1634175;87;25499;-77
2021/12/12 00:11:54;;;;;;;180.35;56.95;;;;;;;0.51;94.37;100859.44;1633922;87;25728;-77
2021/12/12 00:14:29;;;;;;;180.45;55.73;;;;;;;0.48;94.31;100855.39;1634149;87;25521;-77
2021/12/12 00:16:58;;;;;;;180.50;54.77;;;;;;;0.47;94.33;100855.62;1634105;87;27211;-77
2021/12/12 00:19:27;;;;;;;185.73;58.17;;;;;;;0.46;94.46;100859.30;1634276;87;25767;-77
2021/12/12 00:21:58;;;;;;;196.02;60.08;;;;;;;0.46;94.55;100856.15;1611495;87;33011;-77
2021/12/12 00:24:26;;;;;;;172.28;58.20;;;;;;;0.44;94.44;100851.55;1633960;87;25755;-76
2021/12/12 00:26:55;;;;;;;173.02;58.58;;;;;;;0.44;94.33;100845.42;1634068;87;25770;-76
2021/12/12 00:29:24;;;;;;;177.02;55.95;;;;;;;0.43;94.20;100854.47;1634275;87;27363;-76
2021/12/12 00:31:57;;;;;;;160.30;56.83;;;;;;;0.41;94.12;100855.19;1634100;87;25776;-75
2021/12/12 00:34:26;;;;;;;157.30;53.33;;;;;;;0.38;94.11;100857.80;1634131;87;25454;-75
2021/12/12 00:36:53;;;;;;;160.12;54.30;;;;;;;0.37;94.06;100857.49;1633317;87;26337;-75
2021/12/12 00:39:25;;;;;;;160.22;55.48;;;;;;;0.35;94.06;100863.56;1610814;87;25681;-75
2021/12/12 00:42:17;;;;;;;153.62;55.05;;;;;;;0.34;94.01;100866.77;1634450;87;27365;-76
2021/12/12 00:44:48;;;;;;;131.50;52.00;;;;;;;0.31;93.91;100875.72;1705630;84;25491;-75
2021/12/12 00:47:16;;;;;;;130.07;50.98;;;;;;;0.29;93.80;100873.77;1675780;84;25693;-75
2021/12/12 00:49:44;;;;;;;131.43;51.95;;;;;;;0.26;93.74;100874.25;1702113;84;25663;-74
2021/12/12 00:52:14;;;;;;;136.95;55.15;;;;;;;0.22;93.55;100868.55;1675720;84;25602;-74
2021/12/12 00:54:42;;;;;;;131.78;53.08;;;;;;;0.18;93.48;100872.70;1702188;84;27945;-75
2021/12/12 00:57:13;;;;;;;140.95;55.78;;;;;;;0.16;93.63;100880.11;1702048;84;25659;-75
2021/12/12 00:59:41;;;;;;;129.72;53.15;;;;;;;0.16;93.72;100874.78;1702139;84;25666;-75
2021/12/12 01:02:12;;;;;;;136.32;55.40;;;;;;;0.13;93.61;100878.69;1675795;84;25692;-75
2021/12/12 01:04:44;;;;;;;131.12;53.20;;;;;;;0.09;93.50;100872.21;1702000;84;25416;-75
2021/12/12 01:07:19;;;;;;;126.72;52.67;;;;;;;0.09;93.71;100880.19;1675053;84;27297;-75
2021/12/12 01:09:57;;;;;;;136.10;52.58;;;;;;;0.08;93.74;100882.55;1702034;84;25623;-75
2021/12/12 01:12:29;;;;;;;127.20;53.35;;;;;;;0.09;93.76;100883.38;1702181;84;25610;-75
2021/12/12 01:15:01;;;;;;;130.25;51.77;;;;;;;0.09;93.79;100884.18;1675679;84;26237;-75
2021/12/12 01:17:34;;;;;;;128.23;51.75;;;;;;;0.07;93.64;100881.44;1701811;84;25588;-75
2021/12/12 01:20:21;;;;;;;143.37;53.23;;;;;;;0.04;93.50;100885.38;1701952;84;27505;-75
2021/12/12 01:22:52;;;;;;;122.05;52.15;;;;;;;0.02;93.47;100885.29;1702108;84;26291;-74
2021/12/12 01:25:24;;;;;;;127.82;52.30;;;;;;;-0.02;93.36;100885.77;1702136;84;25609;-75
2021/12/12 01:27:53;;;;;;;126.67;51.50;;;;;;;-0.06;93.31;100880.58;1701119;84;25627;-75
2021/12/12 01:30:23;;;;;;;132.77;49.77;;;;;;;-0.08;93.26;100883.98;1702407;84;25496;-75
2021/12/12 01:32:52;;;;;;;126.67;51.92;;;;;;;-0.12;93.24;100880.66;1702122;84;27359;-75
2021/12/12 01:35:21;;;;;;;123.53;50.88;;;;;;;-0.15;93.23;100877.11;1702175;84;25401;-75
2021/12/12 01:40:45;;;;;;;125.85;48.45;;;;;;;-0.20;93.14;100880.45;1702112;84;25648;-75
2021/12/12 01:43:32;;;;;;;125.65;50.52;;;;;;;-0.28;92.76;100874.91;1710899;83;25608;-74
2021/12/12 01:46:06;;;;;;;135.18;48.08;;;;;;;-0.36;92.79;100867.22;1727920;83;27919;-74
2021/12/12 01:48:50;;;;;;;125.72;48.00;;;;;;;-0.41;92.96;100872.39;1728153;82;25627;-75
2021/12/12 01:51:18;;;;;;;129.65;46.08;;;;;;;-0.47;92.88;100875.95;1728262;83;25654;-75
2021/12/12 01:53:48;;;;;;;135.85;48.65;;;;;;;-0.54;92.78;100881.34;1728121;83;25662;-76
2021/12/12 01:56:23;;;;;;;117.75;45.25;;;;;;;-0.59;92.89;100884.65;1728294;83;25807;-75
2021/12/12 01:58:54;;;;;;;118.62;46.33;;;;;;;-0.66;92.74;100888.42;1728355;83;27341;-75
2021/12/12 02:01:26;;;;;;;131.20;45.23;;;;;;;-0.70;92.95;100880.58;1728177;83;25627;-75
2021/12/12 02:04:04;;;;;;;121.30;45.50;;;;;;;-0.76;92.81;100879.09;1728350;83;25586;-75
2021/12/12 02:06:33;;;;;;;124.75;44.55;;;;;;;-0.79;93.00;100883.51;1728205;83;26418;-76
2021/12/12 02:09:22;;;;;;;137.77;48.08;;;;;;;-0.83;92.94;100878.88;1728372;83;25438;-76
2021/12/12 02:11:57;;;;;;;105.95;41.88;;;;;;;-0.86;92.89;100876.12;1673499;85;27535;-75
2021/12/12 02:14:27;;;;;;;128.32;46.00;;;;;;;-0.93;92.72;100885.20;1673391;85;25673;-75
2021/12/12 02:17:02;;;;;;;115.40;47.43;;;;;;;-0.98;92.76;100881.86;1673371;85;25614;-75
2021/12/12 02:19:36;;;;;;;140.75;50.70;;;;;;;-1.01;92.88;100886.27;1674852;85;25719;-75
2021/12/12 02:22:07;;;;;;;146.23;51.77;;;;;;;-0.97;92.99;100913.52;1676269;85;25707;-75
2021/12/12 02:35:07;;;;;;;125.42;51.00;;;;;;;-0.97;92.99;100913.52;1674628;85;27347;-75
2021/12/12 02:35:48;;;;;;;140.37;53.95;;;;;;;-1.13;93.08;100909.53;1690479;82;25474;-75
2021/12/12 02:37:59;;;;;;;143.60;54.90;;;;;;;-1.16;93.07;100904.68;1729306;82;27357;-75
2021/12/12 02:40:31;;;;;;;140.52;53.60;;;;;;;-1.18;93.07;100897.95;1710224;82;25732;-75
2021/12/12 02:42:59;;;;;;;133.60;52.15;;;;;;;-1.19;93.01;100902.45;1736271;82;25411;-75
2021/12/12 02:45:30;;;;;;;136.65;50.65;;;;;;;-1.20;93.04;100908.78;1705078;84;25639;-75
2021/12/12 02:48:00;;;;;;;;;;;;;;;-1.23;92.80;100910.53;1739249;82;25477;-75
2021/12/12 02:50:32;;;;;;;121.35;47.93;;;;;;;-1.24;92.81;100914.72;1736134;82;27350;-75
2021/12/12 02:53:07;;;;;;;115.22;46.13;;;;;;;-1.26;92.80;100920.27;1734396;82;25649;-75
2021/12/12 02:55:39;;;;;;;112.17;46.65;;;;;;;-1.27;92.83;100920.48;1736371;82;25653;-76
2021/12/12 02:58:10;;;;;;;121.75;48.58;;;;;;;-1.27;92.81;100919.16;1737571;82;25631;-76
2021/12/12 03:00:43;;;;;;;113.12;47.85;;;;;;;-1.30;92.64;100919.58;1705106;84;25704;-75
2021/12/12 03:03:13;;;;;;;118.45;48.23;;;;;;;-1.33;92.57;100920.80;1711534;82;27367;-75
2021/12/12 03:05:44;;;;;;;118.67;46.35;;;;;;;-1.35;92.52;100918.89;1737624;82;25577;-75
2021/12/12 03:08:13;;;;;;;115.67;46.50;;;;;;;-1.40;92.39;100926.68;1737606;82;25620;-75
2021/12/12 03:10:44;;;;;;;113.88;47.55;;;;;;;-1.40;92.57;100928.01;1699082;84;25587;-76
2021/12/12 03:13:11;;;;;;;122.80;48.10;;;;;;;-1.40;92.64;100926.68;1692585;84;25641;-76
2021/12/12 03:15:42;;;;;;;127.67;50.33;;;;;;;-1.41;92.69;100923.75;1705863;84;27291;-76
2021/12/12 03:18:14;;;;;;;117.90;45.45;;;;;;;-1.40;92.82;100926.16;1727105;83;25591;-74
2021/12/12 03:20:47;;;;;;;120.70;45.38;;;;;;;-1.41;92.65;100929.05;1727369;83;25454;-74
2021/12/12 03:23:34;;;;;;;118.28;43.83;;;;;;;-1.43;92.43;100928.42;1694377;84;26179;-75
2021/12/12 03:26:08;;;;;;;104.58;42.93;;;;;;;-1.49;92.00;100921.34;1708787;84;25229;-75
2021/12/12 03:28:39;;;;;;;101.35;40.90;;;;;;;-1.55;92.10;100922.98;1729633;83;27327;-75
2021/12/12 03:31:10;;;;;;;112.05;43.78;;;;;;;-1.55;92.25;100926.96;1729206;83;25181;-75
2021/12/12 03:33:38;;;;;;;107.47;43.95;;;;;;;-1.55;92.45;100931.78;1697052;84;25200;-75
2021/12/12 03:36:10;;;;;;;106.90;42.25;;;;;;;-1.54;92.59;100938.70;1727103;83;25718;-75
2021/12/12 03:38:42;;;;;;;110.83;41.10;;;;;;;-1.54;92.61;100938.70;1692650;84;25629;-75
2021/12/12 03:41:13;;;;;;;110.42;41.18;;;;;;;-1.55;92.52;100946.86;1722820;83;27327;-75
2021/12/12 03:43:41;;;;;;;114.22;40.12;;;;;;;-1.56;92.59;100950.04;1706011;84;25393;-75
2021/12/12 03:46:10;;;;;;;105.22;40.65;;;;;;;-1.56;92.73;100947.38;1727258;83;25434;-75
2021/12/12 03:48:41;;;;;;;104.60;40.30;;;;;;;-1.55;92.75;100953.00;1704388;83;25676;-75
2021/12/12 03:51:11;;;;;;;107.05;39.27;;;;;;;-1.56;92.64;100951.89;1692700;84;25595;-75
2021/12/12 03:53:40;;;;;;;101.30;37.05;;;;;;;-1.59;92.53;100953.11;1705996;84;27488;-77
2021/12/12 03:56:10;;;;;;;98.07;38.67;;;;;;;-1.62;92.46;100948.74;1704432;83;25645;-76
2021/12/12 03:58:38;;;;;;;97.40;37.48;;;;;;;-1.62;92.68;100947.41;1727258;83;25500;-76
2021/12/12 04:01:27;;;;;;;93.82;37.08;;;;;;;-1.63;92.82;100951.92;1692646;84;25675;-76
2021/12/12 04:03:57;;;;;;;107.52;38.38;;;;;;;-1.62;92.81;100959.36;1722967;83;25397;-76
2021/12/12 04:06:29;;;;;;;106.67;36.53;;;;;;;-1.63;92.84;100957.75;1705935;84;27369;-76
2021/12/12 04:08:57;;;;;;;109.07;40.25;;;;;;;-1.64;92.83;100958.76;1727176;83;25409;-76
2021/12/12 04:11:28;;;;;;;93.97;36.20;;;;;;;-1.64;92.84;100964.87;1733535;82;25624;-76
2021/12/12 04:13:57;;;;;;;96.95;34.20;;;;;;;-1.65;92.95;100967.23;1704703;84;25595;-76
2021/12/12 04:16:27;;;;;;;89.22;32.75;;;;;;;-1.65;92.91;100963.75;1737850;82;25620;-76
2021/12/12 04:18:55;;;;;;;93.72;34.63;;;;;;;-1.66;92.74;100968.77;1737708;82;27319;-76
2021/12/12 04:21:24;;;;;;;90.28;35.15;;;;;;;-1.66;92.82;100973.55;1737640;82;25435;-76
2021/12/12 04:23:52;;;;;;;94.63;34.90;;;;;;;-1.67;92.85;100978.55;1705557;84;25556;-76
2021/12/12 04:26:30;;;;;;;78.65;31.93;;;;;;;-1.67;92.78;100979.07;1729368;83;25637;-76
2021/12/12 04:29:11;;;;;;;95.60;32.67;;;;;;;-1.68;92.91;100982.24;1737767;82;25635;-76
2021/12/12 04:31:42;;;;;;;86.40;32.58;;;;;;;-1.68;92.86;100985.42;1738427;82;28018;-76
2021/12/12 04:34:09;;;;;;;80.07;32.80;;;;;;;-1.69;92.95;100985.91;1706461;84;25660;-76
2021/12/12 04:36:41;;;;;;;99.22;35.33;;;;;;;-1.67;92.91;100983.05;1738522;82;25219;-76
2021/12/12 04:39:21;;;;;;;93.75;34.18;;;;;;;-1.65;93.02;100987.62;1740654;82;25801;-76
2021/12/12 04:41:52;;;;;;;89.65;31.82;;;;;;;-1.63;93.15;100988.25;1739703;82;25202;-75
2021/12/12 04:44:23;;;;;;;89.32;33.80;;;;;;;-1.59;93.21;100992.10;1707589;84;27327;-76
2021/12/12 04:49:57;;;;;;;81.45;31.15;;;;;;;-1.57;93.18;100991.38;1740139;81;25243;-77
2021/12/12 04:52:43;;;;;;;79.40;33.30;;;;;;;-1.56;93.24;101003.10;1737721;82;26242;-75
2021/12/12 04:55:46;;;;;;;87.05;33.98;;;;;;;-1.56;93.16;101011.06;1737760;82;25388;-76
2021/12/12 04:58:37;;;;;;;97.00;33.38;;;;;;;-1.57;93.14;101010.75;1705166;84;27457;-76
2021/12/12 05:01:18;;;;;;;84.90;33.88;;;;;;;-1.56;93.14;101019.02;1729251;83;25593;-75
2021/12/12 05:03:53;;;;;;;92.70;33.50;;;;;;;-1.57;92.95;101020.56;1734531;82;25525;-75
2021/12/12 05:06:36;;;;;;;81.90;31.33;;;;;;;-1.62;92.79;101036.29;1707417;82;26253;-75
2021/12/12 05:09:36;;;;;;;85.80;33.25;;;;;;;-1.65;92.79;101041.52;1736120;82;25565;-75
2021/12/12 05:12:16;;;;;;;89.80;34.50;;;;;;;-1.67;92.78;101040.89;1726945;81;27462;-75
2021/12/12 05:14:48;;;;;;;95.12;34.95;;;;;;;-1.66;93.10;101050.48;1704064;84;25722;-75
2021/12/12 05:17:38;;;;;;;82.20;33.65;;;;;;;-1.65;93.23;101052.12;1722654;83;25591;-75
2021/12/12 05:20:08;;;;;;;;;;;;;;;-1.64;93.41;101053.74;1649803;87;25677;-75
2021/12/12 05:22:46;;;;;;;91.57;32.30;;;;;;;-1.62;93.33;101055.67;1622874;87;25536;-74
2021/12/12 05:25:36;;;;;;;92.00;32.23;;;;;;;-1.63;93.44;101059.36;1678160;85;27499;-75
2021/12/12 05:28:05;;;;;;;104.23;34.85;;;;;;;-1.60;93.48;101066.91;1681705;85;25617;-76
2021/12/12 05:30:35;;;;;;;98.87;35.17;;;;;;;-1.59;93.42;101065.06;1681798;85;25706;-76
2021/12/12 05:33:03;;;;;;;97.25;36.33;;;;;;;-1.58;93.38;101071.48;1681714;85;25684;-76
2021/12/12 05:35:34;;;;;;;103.35;36.10;;;;;;;-1.56;93.32;101070.77;1681626;85;25533;-76
2021/12/12 05:38:03;;;;;;;99.80;36.20;;;;;;;-1.55;93.43;101065.77;1681754;85;28066;-76
2021/12/12 05:40:34;;;;;;;104.92;36.70;;;;;;;-1.54;93.32;101065.25;1681772;85;25604;-76
2021/12/12 05:43:02;;;;;;;103.15;35.80;;;;;;;-1.54;93.35;101058.09;1681742;85;25679;-76
2021/12/12 05:45:32;;;;;;;104.63;36.50;;;;;;;-1.52;93.30;101065.33;1659263;85;25725;-76
2021/12/12 05:48:00;;;;;;;105.52;35.92;;;;;;;-1.51;93.34;101062.98;1681780;85;25479;-76
2021/12/12 05:50:28;;;;;;;101.80;34.60;;;;;;;-1.50;93.31;101058.48;1681639;85;27835;-76
2021/12/12 05:52:55;;;;;;;107.87;37.53;;;;;;;-1.49;93.31;101060.13;1681617;85;25695;-76
2021/12/12 05:55:26;;;;;;;85.65;33.83;;;;;;;-1.50;93.11;101061.14;1658611;85;25535;-77
2021/12/12 05:57:56;;;;;;;93.58;33.45;;;;;;;-1.53;92.96;101066.37;1721832;83;25646;-76
2021/12/12 06:00:33;;;;;;;80.87;32.25;;;;;;;-1.54;92.95;101063.41;1704108;84;25599;-76
2021/12/12 06:03:00;;;;;;;102.78;41.25;;;;;;;-1.56;92.94;101058.82;1723054;83;27430;-76
2021/12/12 06:05:28;;;;;;;94.07;33.35;;;;;;;-1.54;92.99;101066.58;1703975;84;25610;-76
2021/12/12 06:07:56;;;;;;;89.20;31.75;;;;;;;-1.54;92.99;101075.34;1700336;83;25654;-76
2021/12/12 06:10:24;;;;;;;92.08;32.17;;;;;;;-1.56;92.93;101065.98;1704029;84;25684;-76
2021/12/12 06:12:51;;;;;;;84.60;31.95;;;;;;;-1.57;92.93;101070.97;1736755;82;25451;-76
2021/12/12 06:15:22;;;;;;;88.58;32.80;;;;;;;-1.59;92.90;101075.16;1710317;82;27870;-76
2021/12/12 06:17:51;;;;;;;81.57;30.82;;;;;;;-1.61;92.90;101077.20;1705028;84;25485;-76
2021/12/12 06:23:10;;;;;;;84.70;32.30;;;;;;;-1.68;92.71;101084.90;1634833;87;26116;-76
2021/12/12 06:25:39;;;;;;;94.92;33.40;;;;;;;-1.75;92.65;101084.91;1642825;87;25597;-76
2021/12/12 06:28:13;;;;;;;87.12;33.30;;;;;;;-1.78;93.00;101082.67;1642812;87;27331;-76
2021/12/12 06:30:40;;;;;;;93.70;33.55;;;;;;;-1.80;93.05;101086.84;1641751;87;25779;-76
2021/12/12 06:33:06;;;;;;;100.65;32.65;;;;;;;-1.82;93.11;101082.77;1642720;87;25520;-76
2021/12/12 06:35:33;;;;;;;103.50;35.68;;;;;;;-1.82;93.32;101082.77;1642714;87;26292;-76
2021/12/12 06:38:07;;;;;;;102.17;36.90;;;;;;;-1.83;93.43;101089.11;1642768;87;25638;-76
2021/12/12 06:40:35;;;;;;;105.60;37.05;;;;;;;-1.84;93.58;101086.94;1642796;87;27908;-76
2021/12/12 06:43:06;;;;;;;;;;;;;;;-1.79;93.89;101086.33;1645106;87;25531;-76
2021/12/12 06:45:34;;;;;;;169.53;58.35;;;;;;;-1.77;93.92;101089.58;1642957;87;25639;-76
2021/12/12 06:48:07;;;;;;;182.72;63.78;;;;;;;-1.74;94.05;101093.16;1662364;84;26250;-77
2021/12/12 06:50:38;;;;;;;145.30;51.63;;;;;;;-1.71;94.22;101085.59;1675757;85;25427;-77
2021/12/12 06:53:07;;;;;;;116.08;41.88;;;;;;;-1.66;94.23;101092.94;1695065;84;27031;-77
2021/12/12 06:55:36;;;;;;;;;;;;;;;-1.68;93.87;101091.01;1677777;85;25754;-75
2021/12/12 06:58:06;;;;;;;97.47;37.25;;;;;;;-1.65;93.96;101098.55;1705968;84;25458;-76
2021/12/12 07:00:36;;;;;;;97.72;37.13;;;;;;;-1.64;93.91;101097.52;1705958;84;25726;-76
2021/12/12 07:03:03;;;;;;;87.53;35.10;;;;;;;-1.61;93.95;101102.94;1705757;84;25457;-76
2021/12/12 07:05:31;;;;;;;96.05;39.27;;;;;;;-1.59;94.10;101095.05;1705625;84;27343;-76
2021/12/12 07:07:59;;;;;;;91.65;35.40;;;;;;;-1.56;94.08;101101.28;1681632;84;25502;-76
2021/12/12 07:10:29;;;;;;;90.75;36.53;;;;;;;-1.54;93.88;101103.73;1705646;84;25576;-76
2021/12/12 07:12:58;;;;;;;;;;;;;;;-1.52;93.86;101113.61;1683964;84;25678;-76
2021/12/12 07:15:32;;;;;;;82.53;34.53;;;;;;;-1.51;93.87;101111.27;1705779;84;25483;-76
2021/12/12 07:18:03;;;;;;;97.50;36.65;;;;;;;-1.49;94.01;101111.06;1704499;84;28033;-76
2021/12/12 07:20:31;;;;;;;96.10;38.63;;;;;;;-1.46;94.01;101122.08;1705471;84;25731;-76
2021/12/12 07:22:59;;;;;;;98.03;39.25;;;;;;;-1.45;93.88;101122.36;1746239;81;25326;-77
2021/12/12 07:25:26;;;;;;;93.03;39.60;;;;;;;-1.43;93.95;101128.80;1752388;81;25622;-76
2021/12/12 07:27:53;;;;;;;99.60;42.13;;;;;;;-1.39;93.99;101130.02;1752446;81;25653;-76
2021/12/12 07:30:20;;;;;;;95.67;38.65;;;;;;;-1.38;93.80;101130.31;1752761;81;28041;-76
2021/12/12 07:32:47;;;;;;;85.15;38.10;;;;;;;-1.37;93.72;101130.62;1752436;81;25467;-76
2021/12/12 07:35:15;;;;;;;100.65;40.33;;;;;;;-1.37;93.65;101134.08;1752493;81;25407;-76
2021/12/12 07:37:45;;;;;;;90.15;37.93;;;;;;;-1.36;93.72;101129.09;1752492;81;25647;-76
2021/12/12 07:40:14;;;;;;;88.97;39.38;;;;;;;-1.34;93.73;101130.21;1752561;81;25419;-76
2021/12/12 07:42:45;;;;;;;88.47;37.53;;;;;;;-1.33;93.69;101141.95;1752572;81;30066;-77
2021/12/12 07:45:12;;;;;;;86.47;36.95;;;;;;;-1.32;93.63;101143.56;1731622;81;25574;-75
2021/12/12 07:47:39;;;;;;;88.33;37.17;;;;;;;-1.30;93.59;101143.36;1730867;81;25621;-77
2021/12/12 07:50:10;;;;;;;90.32;35.78;;;;;;;-1.28;93.64;101143.95;1752354;81;25676;-78
2021/12/12 07:52:37;;;;;;;81.80;36.05;;;;;;;-1.26;93.62;101153.04;1752456;81;25458;-77
2021/12/12 07:55:06;;;;;;;84.55;33.78;;;;;;;-1.27;93.28;101158.87;1752508;81;28049;-78
2021/12/12 07:57:34;;;;;;;81.87;36.03;;;;;;;-1.30;93.06;101161.12;1707084;81;25447;-78
2021/12/12 08:00:04;;;;;;;83.85;35.58;;;;;;;-1.32;93.11;101166.13;1731538;81;25615;-77
2021/12/12 08:02:32;;;;;;;87.20;37.30;;;;;;;-1.30;93.14;101173.88;1752487;81;26242;-77
2021/12/12 08:04:59;;;;;;;93.55;37.15;;;;;;;-1.28;93.35;101171.02;1752538;81;25412;-76
2021/12/12 08:07:27;;;;;;;88.65;37.55;;;;;;;-1.26;93.46;101172.95;1752489;81;28029;-76
2021/12/12 08:09:55;;;;;;;99.15;38.80;;;;;;;-1.24;93.53;101183.67;1731134;81;25763;-76
2021/12/12 08:12:28;;;;;;;95.05;37.88;;;;;;;-1.18;93.69;101190.79;1752334;81;25510;-77
2021/12/12 08:14:57;;;;;;;93.12;37.25;;;;;;;-1.13;93.82;101188.32;1752395;81;26197;-77
2021/12/12 08:17:24;;;;;;;93.37;38.77;;;;;;;-1.10;93.79;101185.78;1752718;81;25654;-77
2021/12/12 08:19:56;;;;;;;94.95;40.38;;;;;;;-1.06;93.55;101193.62;1730701;81;27885;-76
2021/12/12 08:22:25;;;;;;;91.50;40.03;;;;;;;-1.07;93.47;101185.36;1744580;81;25448;-77
2021/12/12 08:24:52;;;;;;;103.83;39.85;;;;;;;-1.05;93.41;101185.16;1736387;82;25633;-77
2021/12/12 08:27:19;;;;;;;91.53;40.08;;;;;;;-1.00;93.25;101189.33;1736221;82;26124;-78
2021/12/12 08:29:46;;;;;;;94.20;40.67;;;;;;;-1.00;93.07;101182.69;1736537;82;25602;-77
2021/12/12 08:32:14;;;;;;;84.65;40.73;;;;;;;-0.99;93.21;101185.63;1736383;82;27331;-76
2021/12/12 08:34:41;;;;;;;90.35;41.10;;;;;;;-0.96;93.40;101188.67;1736317;82;25696;-77
2021/12/12 08:37:09;;;;;;;109.87;41.55;;;;;;;-0.94;93.35;101181.83;1736496;82;25405;-77
2021/12/12 08:39:36;;;;;;;98.17;42.15;;;;;;;-0.91;93.33;101169.45;1695668;82;25551;-78
2021/12/12 08:42:06;;;;;;;98.50;41.23;;;;;;;-0.91;92.98;101169.98;1736475;82;25585;-78
2021/12/12 08:44:36;;;;;;;91.05;40.20;;;;;;;-0.93;92.61;101176.83;1736430;82;27986;-77
2021/12/12 08:47:08;;;;;;;95.50;42.10;;;;;;;-0.95;92.54;101170.92;1736283;82;25237;-77
2021/12/12 08:49:38;;;;;;;95.38;40.63;;;;;;;-0.94;92.63;101184.48;1719606;82;25694;-77
2021/12/12 08:52:13;;;;;;;89.45;40.65;;;;;;;-0.95;92.63;101176.23;1736369;81;25718;-75
2021/12/12 08:54:44;;;;;;;93.97;41.37;;;;;;;-0.92;92.92;101178.44;1735625;82;25446;-77
2021/12/12 08:59:46;;;;;;;99.20;41.90;;;;;;;-0.82;93.30;101178.00;1712916;83;25646;-76
2021/12/12 09:02:17;;;;;;;95.32;40.65;;;;;;;-0.78;93.28;101180.55;1712860;83;25466;-77
2021/12/12 09:04:50;;;;;;;94.50;41.90;;;;;;;-0.75;93.10;101184.09;1712800;83;25639;-76
2021/12/12 09:07:27;;;;;;;102.55;44.77;;;;;;;-0.74;92.94;101184.41;1712815;83;25720;-77
2021/12/12 09:10:25;;;;;;;99.45;43.42;;;;;;;-0.72;93.01;101179.69;1712810;83;27505;-77
2021/12/12 09:12:57;;;;;;;111.92;46.60;;;;;;;-0.69;93.11;101167.31;1712707;83;25679;-75
2021/12/12 09:15:38;;;;;;;109.65;46.98;;;;;;;-0.64;93.07;101177.31;1712967;83;25609;-77
2021/12/12 09:18:09;;;;;;;110.08;44.85;;;;;;;-0.66;92.63;101168.22;1712852;83;25646;-77
2021/12/12 09:20:48;;;;;;;123.53;46.33;;;;;;;-0.69;92.32;101166.51;1712937;83;25454;-76
2021/12/12 09:23:18;;;;;;;129.68;47.15;;;;;;;-0.73;92.27;101164.80;1710248;83;27325;-76
2021/12/12 09:25:59;;;;;;;151.32;60.88;;;;;;;-0.78;92.11;101168.60;1708169;83;25628;-77
2021/12/12 09:28:36;;;;;;;134.00;51.63;;;;;;;-0.80;92.35;101174.61;1710255;83;25525;-75
2021/12/12 09:31:10;;;;;;;132.22;51.68;;;;;;;-0.80;92.56;101173.28;1710756;83;25643;-77
2021/12/12 09:33:45;;;;;;;132.60;50.90;;;;;;;-0.84;92.52;101175.55;1710912;83;25536;-76
2021/12/12 09:36:41;;;;;;;130.22;50.85;;;;;;;-0.83;92.53;101167.90;1713695;81;27398;-75
2021/12/12 09:39:13;;;;;;;130.37;50.15;;;;;;;-0.82;92.71;101173.52;1680588;85;25518;-75
2021/12/12 09:42:12;;;;;;;137.40;50.90;;;;;;;-0.81;92.83;101173.00;1680786;85;25795;-76
2021/12/12 09:45:11;;;;;;;141.05;51.45;;;;;;;-0.79;93.01;101166.95;1680415;85;25633;-76
2021/12/12 09:51:42;;;;;;;136.43;51.53;;;;;;;-0.69;93.17;101167.84;1660749;86;27355;-75
2021/12/12 09:54:45;;;;;;;152.07;55.33;;;;;;;-0.57;92.78;101182.87;1660863;86;26167;-76
2021/12/12 09:57:20;;;;;;;159.18;56.68;;;;;;;-0.57;92.78;101182.87;1660906;86;25645;-77
2021/12/12 10:00:18;;;;;;;172.20;62.08;;;;;;;-0.66;92.76;101176.20;1658204;86;25681;-75
2021/12/12 10:03:02;;;;;;;174.27;62.05;;;;;;;-0.65;92.55;101173.02;1660836;86;25517;-75
2021/12/12 10:06:05;;;;;;;166.57;60.28;;;;;;;-0.68;92.08;101174.77;1660274;86;27349;-75
2021/12/12 10:09:01;;;;;;;161.07;60.23;;;;;;;-0.72;91.79;101173.57;1660694;86;25674;-75
2021/12/12 10:11:44;;;;;;;178.35;64.82;;;;;;;-0.72;92.12;101168.25;1660794;86;25538;-75
2021/12/12 10:14:49;;;;;;;187.00;65.62;;;;;;;-0.70;92.32;101164.87;1660743;86;25628;-75
2021/12/12 10:17:44;;;;;;;172.35;63.78;;;;;;;-0.69;92.10;101171.82;1682477;84;25532;-75
2021/12/12 10:20:22;;;;;;;185.12;61.65;;;;;;;-0.72;91.77;101161.61;1662656;85;27342;-75
2021/12/12 10:23:38;;;;;;;197.93;68.75;;;;;;;-0.72;91.73;101162.94;1684231;82;25512;-75
2021/12/12 10:26:18;;;;;;;210.95;70.37;;;;;;;-0.71;91.67;101155.28;1755742;81;25515;-75
2021/12/12 10:28:53;;;;;;;;;;;;;;;-0.67;91.89;101155.15;1713400;83;25631;-74
2021/12/12 10:31:35;;;;;;;218.65;73.67;;;;;;;-0.67;91.69;101148.50;1728567;82;25407;-74
2021/12/12 10:34:13;;;;;;;205.50;72.80;;;;;;;-0.67;91.77;101151.97;1700167;83;27948;-75
2021/12/12 10:37:07;;;;;;;217.77;73.20;;;;;;;-0.72;91.18;101149.13;1732420;82;25618;-75
2021/12/12 10:39:52;;;;;;;203.98;73.97;;;;;;;-0.77;91.17;101146.30;1715218;83;25659;-75
2021/12/12 10:42:26;;;;;;;215.47;76.50;;;;;;;-0.76;91.49;101147.94;1710140;82;25627;-76
2021/12/12 10:45:10;;;;;;;226.65;79.15;;;;;;;-0.73;91.67;101150.18;1720759;81;25710;-76
2021/12/12 10:48:02;;;;;;;218.48;77.30;;;;;;;-0.75;91.21;101153.54;1744725;81;27895;-76
2021/12/12 10:51:07;;;;;;;228.77;77.53;;;;;;;-0.81;91.03;101145.91;1754741;81;25649;-75
2021/12/12 10:54:04;;;;;;;215.07;73.12;;;;;;;-0.86;90.74;101140.42;1754549;81;25579;-73
2021/12/12 10:56:42;;;;;;;227.50;76.02;;;;;;;-0.91;90.77;101145.55;1726566;81;25581;-75
2021/12/12 10:59:25;;;;;;;209.12;71.95;;;;;;;-1.01;90.59;101142.53;1724577;83;25501;-76
2021/12/12 11:01:57;;;;;;;203.32;72.95;;;;;;;-1.05;90.64;101154.09;1724545;83;27252;-75
2021/12/12 11:04:55;;;;;;;221.75;73.15;;;;;;;-1.05;90.92;101150.11;1724497;83;25643;-74
2021/12/12 11:07:32;;;;;;;225.90;72.67;;;;;;;-1.06;91.14;101155.63;1724493;83;25662;-75
2021/12/12 11:10:19;;;;;;;216.63;75.00;;;;;;;-1.08;90.94;101154.52;1723806;83;25555;-75
2021/12/12 11:13:09;;;;;;;225.43;73.45;;;;;;;-1.21;90.35;101161.19;1724599;83;25743;-75
2021/12/12 11:22:05;;;;;;;210.63;70.95;;;;;;;-1.44;90.54;101159.83;1595756;89;25599;-75
2021/12/12 11:24:49;;;;;;;224.00;75.20;;;;;;;-1.59;90.11;101136.70;1594697;90;25891;-76
2021/12/12 11:27:21;;;;;;;244.72;81.02;;;;;;;-1.59;90.80;101148.12;1594787;90;25381;-76
2021/12/12 11:30:00;;;;;;;220.07;75.92;;;;;;;-1.63;90.75;101142.13;1594726;90;27534;-76
2021/12/12 11:32:33;;;;;;;230.65;77.17;;;;;;;-1.65;90.95;101138.84;1594686;90;25547;-76
2021/12/12 11:35:04;;;;;;;239.75;81.60;;;;;;;-1.68;91.08;101157.33;1594783;90;25487;-77
2021/12/12 11:37:48;;;;;;;234.35;78.70;;;;;;;-1.74;91.01;101152.34;1588387;90;25673;-74
2021/12/12 11:40:53;;;;;;;219.95;77.17;;;;;;;-1.75;91.10;101156.53;1587779;90;25315;-76
2021/12/12 11:43:38;;;;;;;226.58;75.55;;;;;;;-1.78;91.19;101142.34;1600137;89;27439;-75
2021/12/12 11:46:20;;;;;;;228.73;76.65;;;;;;;-1.79;91.31;101147.33;1609716;89;25474;-77
2021/12/12 11:49:18;;;;;;;214.40;74.75;;;;;;;-1.79;91.14;101146.01;1612990;87;25605;-76
2021/12/12 11:52:05;;;;;;;218.63;79.45;;;;;;;-1.84;90.93;101153.77;1655275;86;25784;-76
2021/12/12 11:55:01;;;;;;;224.92;77.08;;;;;;;-1.88;91.02;101156.02;1623088;88;25597;-75
2021/12/12 11:57:36;;;;;;;205.37;74.97;;;;;;;-1.90;91.05;101156.22;1656726;86;27413;-75
2021/12/12 12:00:16;;;;;;;228.75;79.97;;;;;;;-1.88;91.53;101158.14;1677818;85;25692;-76
2021/12/12 12:03:12;;;;;;;240.75;82.78;;;;;;;-1.82;91.80;101155.20;1675732;85;25662;-76
2021/12/12 12:06:14;;;;;;;233.93;83.82;;;;;;;-1.78;92.00;101160.91;1679475;85;25452;-77
2021/12/12 12:08:58;;;;;;;232.62;83.05;;;;;;;-1.72;92.06;101168.87;1679492;85;25658;-76
2021/12/12 12:12:08;;;;;;;229.38;84.03;;;;;;;-1.68;91.86;101161.83;1679578;85;27329;-76